sensor_id;sensor_type;location;lat;lon;timestamp;pressure;altitude;pressure_sealevel;temperature;humidity
19884;BME280;10104;50.732;10.174;2023-07-22T00:00:10;97696.03;;;15.64;96.05
19884;BME280;10104;50.732;10.174;2023-07-22T00:02:36;97698.78;;;15.57;95.77
19884;BME280;10104;50.732;10.174;2023-07-22T00:04:58;97697.97;;;15.57;95.61
19884;BME280;10104;50.732;10.174;2023-07-22T00:07:19;97695.13;;;15.52;95.42
19884;BME280;10104;50.732;10.174;2023-07-22T00:09:42;97701.59;;;15.44;95.41
19884;BME280;10104;50.732;10.174;2023-07-22T00:12:04;97693.81;;;15.43;95.33
19884;BME280;10104;50.732;10.174;2023-07-22T00:14:26;97698.47;;;15.47;94.74
19884;BME280;10104;50.732;10.174;2023-07-22T00:16:47;97701.09;;;15.35;95.42
19884;BME280;10104;50.732;10.174;2023-07-22T00:19:09;97708.94;;;15.30;95.98
19884;BME280;10104;50.732;10.174;2023-07-22T00:21:31;97716.28;;;15.35;95.41
19884;BME280;10104;50.732;10.174;2023-07-22T00:23:52;97713.81;;;15.33;95.38
19884;BME280;10104;50.732;10.174;2023-07-22T00:26:14;97714.34;;;15.42;94.44
19884;BME280;10104;50.732;10.174;2023-07-22T00:28:35;97716.34;;;15.28;94.86
19884;BME280;10104;50.732;10.174;2023-07-22T00:30:57;97724.50;;;15.33;94.38
19884;BME280;10104;50.732;10.174;2023-07-22T00:33:19;97725.09;;;15.35;94.01
19884;BME280;10104;50.732;10.174;2023-07-22T00:35:40;97725.03;;;15.24;94.48
19884;BME280;10104;50.732;10.174;2023-07-22T00:38:02;97721.22;;;15.31;93.92
19884;BME280;10104;50.732;10.174;2023-07-22T00:40:24;97712.19;;;15.32;93.65
19884;BME280;10104;50.732;10.174;2023-07-22T00:42:45;97713.06;;;15.08;95.21
19884;BME280;10104;50.732;10.174;2023-07-22T00:45:07;97714.78;;;15.03;96.71
19884;BME280;10104;50.732;10.174;2023-07-22T00:47:29;97719.94;;;14.97;96.81
19884;BME280;10104;50.732;10.174;2023-07-22T00:49:51;97709.97;;;14.93;96.85
19884;BME280;10104;50.732;10.174;2023-07-22T00:52:13;97711.72;;;14.81;97.08
19884;BME280;10104;50.732;10.174;2023-07-22T00:54:34;97708.81;;;14.82;97.43
19884;BME280;10104;50.732;10.174;2023-07-22T00:56:56;97714.53;;;14.86;97.10
19884;BME280;10104;50.732;10.174;2023-07-22T00:59:18;97712.75;;;14.80;97.12
19884;BME280;10104;50.732;10.174;2023-07-22T01:01:40;97709.63;;;14.83;96.66
19884;BME280;10104;50.732;10.174;2023-07-22T01:04:02;97713.25;;;14.88;96.51
19884;BME280;10104;50.732;10.174;2023-07-22T01:06:25;97712.44;;;14.88;96.44
19884;BME280;10104;50.732;10.174;2023-07-22T01:08:51;97712.84;;;14.91;96.25
19884;BME280;10104;50.732;10.174;2023-07-22T01:11:13;97705.81;;;14.97;95.75
19884;BME280;10104;50.732;10.174;2023-07-22T01:13:35;97710.31;;;14.96;95.83
19884;BME280;10104;50.732;10.174;2023-07-22T01:15:56;97714.34;;;15.06;94.55
19884;BME280;10104;50.732;10.174;2023-07-22T01:18:18;97714.03;;;15.14;93.58
19884;BME280;10104;50.732;10.174;2023-07-22T01:20:40;97723.94;;;15.07;93.54
19884;BME280;10104;50.732;10.174;2023-07-22T01:23:02;97722.34;;;15.06;93.80
19884;BME280;10104;50.732;10.174;2023-07-22T01:25:23;97712.25;;;15.08;93.23
19884;BME280;10104;50.732;10.174;2023-07-22T01:27:45;97716.28;;;15.17;92.62
19884;BME280;10104;50.732;10.174;2023-07-22T01:30:07;97720.03;;;15.09;92.96
19884;BME280;10104;50.732;10.174;2023-07-22T01:32:31;97718.78;;;15.12;92.43
19884;BME280;10104;50.732;10.174;2023-07-22T01:34:53;97710.25;;;15.03;92.86
19884;BME280;10104;50.732;10.174;2023-07-22T01:37:14;97714.34;;;15.06;92.43
19884;BME280;10104;50.732;10.174;2023-07-22T01:39:36;97717.72;;;15.13;91.66
19884;BME280;10104;50.732;10.174;2023-07-22T01:41:58;97714.34;;;15.06;91.41
19884;BME280;10104;50.732;10.174;2023-07-22T01:44:19;97716.13;;;15.12;90.48
19884;BME280;10104;50.732;10.174;2023-07-22T01:46:41;97719.91;;;15.22;89.84
19884;BME280;10104;50.732;10.174;2023-07-22T01:49:10;97729.47;;;15.30;88.96
19884;BME280;10104;50.732;10.174;2023-07-22T01:51:31;97728.41;;;15.31;88.32
19884;BME280;10104;50.732;10.174;2023-07-22T01:53:53;97726.28;;;15.21;88.67
19884;BME280;10104;50.732;10.174;2023-07-22T01:56:18;97720.78;;;15.34;87.54
19884;BME280;10104;50.732;10.174;2023-07-22T01:58:42;97719.97;;;15.34;86.75
19884;BME280;10104;50.732;10.174;2023-07-22T02:01:03;97720.19;;;15.32;86.74
19884;BME280;10104;50.732;10.174;2023-07-22T02:03:25;97722.19;;;15.37;86.21
19884;BME280;10104;50.732;10.174;2023-07-22T02:05:47;97719.69;;;15.42;85.67
19884;BME280;10104;50.732;10.174;2023-07-22T02:08:08;97720.03;;;15.46;85.11
19884;BME280;10104;50.732;10.174;2023-07-22T02:10:30;97725.69;;;15.56;84.06
19884;BME280;10104;50.732;10.174;2023-07-22T02:12:51;97727.16;;;15.52;83.87
19884;BME280;10104;50.732;10.174;2023-07-22T02:15:13;97733.16;;;15.47;83.29
19884;BME280;10104;50.732;10.174;2023-07-22T02:17:35;97728.94;;;15.39;82.81
19884;BME280;10104;50.732;10.174;2023-07-22T02:19:56;97731.25;;;15.36;82.99
19884;BME280;10104;50.732;10.174;2023-07-22T02:22:18;97740.78;;;15.25;83.49
19884;BME280;10104;50.732;10.174;2023-07-22T02:24:39;97742.56;;;15.31;82.90
19884;BME280;10104;50.732;10.174;2023-07-22T02:27:01;97743.69;;;15.24;83.17
19884;BME280;10104;50.732;10.174;2023-07-22T02:29:22;97747.81;;;15.20;83.41
19884;BME280;10104;50.732;10.174;2023-07-22T02:31:44;97744.72;;;15.05;83.75
19884;BME280;10104;50.732;10.174;2023-07-22T02:34:06;97742.19;;;15.10;83.15
19884;BME280;10104;50.732;10.174;2023-07-22T02:36:27;97746.09;;;15.07;83.38
19884;BME280;10104;50.732;10.174;2023-07-22T02:38:49;97745.06;;;15.08;82.95
19884;BME280;10104;50.732;10.174;2023-07-22T02:41:11;97744.41;;;15.13;82.48
19884;BME280;10104;50.732;10.174;2023-07-22T02:43:35;97742.19;;;15.10;82.03
19884;BME280;10104;50.732;10.174;2023-07-22T02:45:57;97739.88;;;15.13;82.19
19884;BME280;10104;50.732;10.174;2023-07-22T02:48:19;97743.44;;;15.07;81.82
19884;BME280;10104;50.732;10.174;2023-07-22T02:50:40;97746.09;;;15.07;81.77
19884;BME280;10104;50.732;10.174;2023-07-22T02:53:02;97745.13;;;15.02;81.64
19884;BME280;10104;50.732;10.174;2023-07-22T02:55:24;97741.66;;;15.01;82.31
19884;BME280;10104;50.732;10.174;2023-07-22T02:57:46;97752.81;;;14.91;82.42
19884;BME280;10104;50.732;10.174;2023-07-22T03:00:08;97749.06;;;14.99;82.06
19884;BME280;10104;50.732;10.174;2023-07-22T03:02:30;97747.44;;;14.98;81.75
19884;BME280;10104;50.732;10.174;2023-07-22T03:04:52;97755.38;;;15.05;81.18
19884;BME280;10104;50.732;10.174;2023-07-22T03:07:13;97758.81;;;14.87;81.90
19884;BME280;10104;50.732;10.174;2023-07-22T03:09:36;97751.47;;;14.82;83.76
19884;BME280;10104;50.732;10.174;2023-07-22T03:11:57;97744.72;;;14.80;84.16
19884;BME280;10104;50.732;10.174;2023-07-22T03:14:19;97753.31;;;14.82;83.33
19884;BME280;10104;50.732;10.174;2023-07-22T03:16:42;97751.75;;;14.74;83.54
19884;BME280;10104;50.732;10.174;2023-07-22T03:19:04;97752.94;;;14.78;83.41
19884;BME280;10104;50.732;10.174;2023-07-22T03:21:25;97758.22;;;14.85;82.72
19884;BME280;10104;50.732;10.174;2023-07-22T03:23:47;97755.91;;;14.88;82.25
19884;BME280;10104;50.732;10.174;2023-07-22T03:26:08;97760.66;;;14.86;82.03
19884;BME280;10104;50.732;10.174;2023-07-22T03:28:30;97759.34;;;14.95;81.39
19884;BME280;10104;50.732;10.174;2023-07-22T03:30:51;97764.88;;;14.94;81.37
19884;BME280;10104;50.732;10.174;2023-07-22T03:33:14;97767.13;;;14.97;81.08
19884;BME280;10104;50.732;10.174;2023-07-22T03:35:36;97764.69;;;14.95;80.71
19884;BME280;10104;50.732;10.174;2023-07-22T03:37:58;97765.69;;;14.94;80.58
19884;BME280;10104;50.732;10.174;2023-07-22T03:40:19;97763.66;;;14.96;80.35
19884;BME280;10104;50.732;10.174;2023-07-22T03:42:41;97769.13;;;15.02;80.25
19884;BME280;10104;50.732;10.174;2023-07-22T03:45:03;97766.53;;;14.95;80.36
19884;BME280;10104;50.732;10.174;2023-07-22T03:47:25;97765.69;;;14.94;80.40
19884;BME280;10104;50.732;10.174;2023-07-22T03:49:47;97771.22;;;15.00;80.32
19884;BME280;10104;50.732;10.174;2023-07-22T03:52:08;97774.47;;;15.02;80.13
19884;BME280;10104;50.732;10.174;2023-07-22T03:54:30;97769.34;;;15.00;80.14
19884;BME280;10104;50.732;10.174;2023-07-22T03:56:51;97770.97;;;15.01;80.00
19884;BME280;10104;50.732;10.174;2023-07-22T03:59:13;97774.25;;;15.03;79.83
19884;BME280;10104;50.732;10.174;2023-07-22T04:01:34;97766.16;;;14.91;79.70
19884;BME280;10104;50.732;10.174;2023-07-22T04:03:56;97770.69;;;14.91;79.55
19884;BME280;10104;50.732;10.174;2023-07-22T04:06:17;97767.84;;;14.86;79.29
19884;BME280;10104;50.732;10.174;2023-07-22T04:08:39;97771.69;;;14.90;78.92
19884;BME280;10104;50.732;10.174;2023-07-22T04:11:01;97772.88;;;14.94;78.87
19884;BME280;10104;50.732;10.174;2023-07-22T04:13:25;97772.47;;;14.97;78.86
19884;BME280;10104;50.732;10.174;2023-07-22T04:15:47;97769.34;;;15.00;78.82
19884;BME280;10104;50.732;10.174;2023-07-22T04:18:09;97770.34;;;14.81;78.94
19884;BME280;10104;50.732;10.174;2023-07-22T04:20:31;97771.09;;;14.88;78.50
19884;BME280;10104;50.732;10.174;2023-07-22T04:22:52;97776.97;;;14.96;78.56
19884;BME280;10104;50.732;10.174;2023-07-22T04:25:14;97776.56;;;15.00;78.30
19884;BME280;10104;50.732;10.174;2023-07-22T04:27:36;97767.34;;;14.95;78.58
19884;BME280;10104;50.732;10.174;2023-07-22T04:29:57;97771.59;;;15.03;78.42
19884;BME280;10104;50.732;10.174;2023-07-22T04:32:19;97775.22;;;15.09;78.41
19884;BME280;10104;50.732;10.174;2023-07-22T04:34:40;97775.38;;;15.14;78.12
19884;BME280;10104;50.732;10.174;2023-07-22T04:37:02;97776.34;;;15.19;78.04
19884;BME280;10104;50.732;10.174;2023-07-22T04:39:24;97776.75;;;15.23;78.04
19884;BME280;10104;50.732;10.174;2023-07-22T04:41:46;97781.41;;;15.27;77.80
19884;BME280;10104;50.732;10.174;2023-07-22T04:44:07;97786.31;;;15.30;77.77
19884;BME280;10104;50.732;10.174;2023-07-22T04:46:29;97777.03;;;15.33;77.83
19884;BME280;10104;50.732;10.174;2023-07-22T04:48:57;97777.44;;;15.36;77.80
19884;BME280;10104;50.732;10.174;2023-07-22T04:51:19;97780.88;;;15.37;78.04
19884;BME280;10104;50.732;10.174;2023-07-22T04:53:41;97782.25;;;15.46;77.85
19884;BME280;10104;50.732;10.174;2023-07-22T04:56:02;97777.50;;;15.48;77.89
19884;BME280;10104;50.732;10.174;2023-07-22T04:58:24;97778.72;;;15.52;77.90
19884;BME280;10104;50.732;10.174;2023-07-22T05:00:45;97783.53;;;15.62;77.93
19884;BME280;10104;50.732;10.174;2023-07-22T05:03:07;97787.47;;;15.59;77.93
19884;BME280;10104;50.732;10.174;2023-07-22T05:05:29;97788.50;;;15.58;77.90
19884;BME280;10104;50.732;10.174;2023-07-22T05:07:51;97780.72;;;15.57;78.06
19884;BME280;10104;50.732;10.174;2023-07-22T05:10:13;97783.09;;;15.65;77.83
19884;BME280;10104;50.732;10.174;2023-07-22T05:12:35;97789.19;;;15.72;77.29
19884;BME280;10104;50.732;10.174;2023-07-22T05:14:56;97779.25;;;15.79;76.97
19884;BME280;10104;50.732;10.174;2023-07-22T05:17:18;97777.97;;;15.82;76.89
19884;BME280;10104;50.732;10.174;2023-07-22T05:19:40;97777.13;;;15.81;77.29
19884;BME280;10104;50.732;10.174;2023-07-22T05:22:01;97783.97;;;15.95;77.54
19884;BME280;10104;50.732;10.174;2023-07-22T05:24:23;97783.66;;;16.03;77.78
19884;BME280;10104;50.732;10.174;2023-07-22T05:26:44;97781.41;;;16.00;78.18
19884;BME280;10104;50.732;10.174;2023-07-22T05:29:26;97784.47;;;16.04;78.19
19884;BME280;10104;50.732;10.174;2023-07-22T05:31:47;97786.59;;;16.13;78.16
19884;BME280;10104;50.732;10.174;2023-07-22T05:34:09;97789.19;;;16.20;77.84
19884;BME280;10104;50.732;10.174;2023-07-22T05:36:30;97778.72;;;16.18;78.15
19884;BME280;10104;50.732;10.174;2023-07-22T05:38:52;97788.06;;;16.28;77.48
19884;BME280;10104;50.732;10.174;2023-07-22T05:41:13;97785.16;;;16.29;77.47
19884;BME280;10104;50.732;10.174;2023-07-22T05:43:35;97787.25;;;16.27;78.27
19884;BME280;10104;50.732;10.174;2023-07-22T05:45:57;97787.06;;;16.40;77.27
19884;BME280;10104;50.732;10.174;2023-07-22T05:48:18;97779.41;;;16.55;76.55
19884;BME280;10104;50.732;10.174;2023-07-22T05:50:40;97783.31;;;16.60;76.33
19884;BME280;10104;50.732;10.174;2023-07-22T05:53:02;97781.78;;;16.64;76.32
19884;BME280;10104;50.732;10.174;2023-07-22T05:55:23;97781.19;;;16.62;76.71
19884;BME280;10104;50.732;10.174;2023-07-22T05:57:45;97792.94;;;16.31;76.28
19884;BME280;10104;50.732;10.174;2023-07-22T06:00:07;97784.63;;;16.50;76.38
19884;BME280;10104;50.732;10.174;2023-07-22T06:02:30;97785.91;;;16.48;77.68
19884;BME280;10104;50.732;10.174;2023-07-22T06:04:52;97790.28;;;16.42;73.07
19884;BME280;10104;50.732;10.174;2023-07-22T06:07:14;97797.16;;;16.38;74.87
19884;BME280;10104;50.732;10.174;2023-07-22T06:09:35;97798.56;;;16.41;75.76
19884;BME280;10104;50.732;10.174;2023-07-22T06:11:57;97798.28;;;16.61;73.89
19884;BME280;10104;50.732;10.174;2023-07-22T06:14:18;97805.09;;;16.56;69.32
19884;BME280;10104;50.732;10.174;2023-07-22T06:16:40;97806.97;;;16.56;68.97
19884;BME280;10104;50.732;10.174;2023-07-22T06:19:02;97804.28;;;16.56;70.16
19884;BME280;10104;50.732;10.174;2023-07-22T06:21:25;97798.56;;;16.41;67.19
19884;BME280;10104;50.732;10.174;2023-07-22T06:23:46;97800.63;;;16.39;67.38
19884;BME280;10104;50.732;10.174;2023-07-22T06:26:08;97800.28;;;16.35;68.06
19884;BME280;10104;50.732;10.174;2023-07-22T06:28:29;97797.63;;;16.35;67.58
19884;BME280;10104;50.732;10.174;2023-07-22T06:30:51;97808.69;;;16.50;66.09
19884;BME280;10104;50.732;10.174;2023-07-22T06:33:12;97804.22;;;16.63;66.05
19884;BME280;10104;50.732;10.174;2023-07-22T06:35:34;97813.72;;;16.58;65.50
19884;BME280;10104;50.732;10.174;2023-07-22T06:37:55;97811.84;;;16.47;66.30
19884;BME280;10104;50.732;10.174;2023-07-22T06:40:17;97807.50;;;16.65;64.51
19884;BME280;10104;50.732;10.174;2023-07-22T06:42:39;97816.47;;;16.82;65.81
19884;BME280;10104;50.732;10.174;2023-07-22T06:45:00;97816.38;;;16.88;64.26
19884;BME280;10104;50.732;10.174;2023-07-22T06:47:22;97810.34;;;16.93;62.54
19884;BME280;10104;50.732;10.174;2023-07-22T06:49:43;97813.00;;;16.81;61.84
19884;BME280;10104;50.732;10.174;2023-07-22T06:52:07;97820.09;;;16.87;60.78
19884;BME280;10104;50.732;10.174;2023-07-22T06:54:29;97810.56;;;16.91;62.61
19884;BME280;10104;50.732;10.174;2023-07-22T06:56:51;97819.31;;;17.10;60.72
19884;BME280;10104;50.732;10.174;2023-07-22T06:59:12;97821.97;;;17.10;60.11
19884;BME280;10104;50.732;10.174;2023-07-22T07:01:34;97816.19;;;17.13;59.69
19884;BME280;10104;50.732;10.174;2023-07-22T07:03:55;97814.56;;;17.35;60.45
19884;BME280;10104;50.732;10.174;2023-07-22T07:06:17;97820.28;;;17.39;56.39
19884;BME280;10104;50.732;10.174;2023-07-22T07:08:38;97822.69;;;17.40;57.19
19884;BME280;10104;50.732;10.174;2023-07-22T07:11:01;97824.00;;;17.38;54.71
19884;BME280;10104;50.732;10.174;2023-07-22T07:13:22;97825.94;;;17.54;55.16
19884;BME280;10104;50.732;10.174;2023-07-22T07:15:48;97828.41;;;17.56;56.22
19884;BME280;10104;50.732;10.174;2023-07-22T07:18:10;97820.28;;;17.62;56.44
19884;BME280;10104;50.732;10.174;2023-07-22T07:20:31;97839.59;;;17.76;57.58
19884;BME280;10104;50.732;10.174;2023-07-22T07:22:53;97827.13;;;17.82;54.29
19884;BME280;10104;50.732;10.174;2023-07-22T07:25:14;97837.72;;;17.88;54.71
19884;BME280;10104;50.732;10.174;2023-07-22T07:27:36;97828.69;;;18.06;53.82
19884;BME280;10104;50.732;10.174;2023-07-22T07:29:58;97832.16;;;18.18;53.46
19884;BME280;10104;50.732;10.174;2023-07-22T07:32:19;97828.91;;;18.16;52.23
19884;BME280;10104;50.732;10.174;2023-07-22T07:34:41;97846.47;;;18.24;51.57
19884;BME280;10104;50.732;10.174;2023-07-22T07:37:03;97851.78;;;18.07;51.44
19884;BME280;10104;50.732;10.174;2023-07-22T07:39:24;97844.97;;;18.16;53.18
19884;BME280;10104;50.732;10.174;2023-07-22T07:41:46;97845.84;;;18.33;52.22
19884;BME280;10104;50.732;10.174;2023-07-22T07:44:07;97846.88;;;18.44;53.61
19884;BME280;10104;50.732;10.174;2023-07-22T07:46:29;97842.50;;;18.54;52.11
19884;BME280;10104;50.732;10.174;2023-07-22T07:48:56;97842.88;;;18.58;52.86
19884;BME280;10104;50.732;10.174;2023-07-22T07:51:19;97848.72;;;18.55;51.92
19884;BME280;10104;50.732;10.174;2023-07-22T07:53:42;97845.59;;;18.75;51.25
19884;BME280;10104;50.732;10.174;2023-07-22T07:56:05;97844.22;;;18.72;51.68
19884;BME280;10104;50.732;10.174;2023-07-22T07:58:26;97842.84;;;18.86;51.43
19884;BME280;10104;50.732;10.174;2023-07-22T08:00:48;97850.09;;;19.03;50.30
19884;BME280;10104;50.732;10.174;2023-07-22T08:03:09;97838.38;;;18.92;49.53
19884;BME280;10104;50.732;10.174;2023-07-22T08:05:31;97841.00;;;19.04;49.29
19884;BME280;10104;50.732;10.174;2023-07-22T08:07:53;97840.19;;;19.03;49.80
19884;BME280;10104;50.732;10.174;2023-07-22T08:10:14;97847.41;;;19.03;49.27
19884;BME280;10104;50.732;10.174;2023-07-22T08:12:36;97841.41;;;19.29;48.95
19884;BME280;10104;50.732;10.174;2023-07-22T08:14:59;97844.28;;;19.56;50.20
19884;BME280;10104;50.732;10.174;2023-07-22T08:17:20;97843.88;;;19.47;48.24
19884;BME280;10104;50.732;10.174;2023-07-22T08:19:42;97836.94;;;19.68;47.95
19884;BME280;10104;50.732;10.174;2023-07-22T08:22:04;97841.25;;;19.91;48.17
19884;BME280;10104;50.732;10.174;2023-07-22T08:24:25;97838.34;;;19.75;47.72
19884;BME280;10104;50.732;10.174;2023-07-22T08:26:47;97846.56;;;19.86;48.21
19884;BME280;10104;50.732;10.174;2023-07-22T08:29:09;97840.44;;;19.90;48.31
19884;BME280;10104;50.732;10.174;2023-07-22T08:31:31;97840.13;;;19.87;47.06
19884;BME280;10104;50.732;10.174;2023-07-22T08:33:52;97834.00;;;19.91;47.03
19884;BME280;10104;50.732;10.174;2023-07-22T08:36:14;97840.72;;;20.10;48.98
19884;BME280;10104;50.732;10.174;2023-07-22T08:38:36;97839.13;;;20.14;47.34
19884;BME280;10104;50.732;10.174;2023-07-22T08:40:57;97828.94;;;20.38;45.34
19884;BME280;10104;50.732;10.174;2023-07-22T08:43:21;97838.47;;;20.24;45.82
19884;BME280;10104;50.732;10.174;2023-07-22T08:45:43;97837.81;;;19.95;45.50
19884;BME280;10104;50.732;10.174;2023-07-22T08:48:07;97838.50;;;20.29;46.27
19884;BME280;10104;50.732;10.174;2023-07-22T08:50:30;97828.72;;;20.40;46.53
19884;BME280;10104;50.732;10.174;2023-07-22T08:52:55;97844.94;;;20.50;45.68
19884;BME280;10104;50.732;10.174;2023-07-22T08:55:18;97842.53;;;20.75;45.43
19884;BME280;10104;50.732;10.174;2023-07-22T08:57:41;97838.94;;;20.91;45.85
19884;BME280;10104;50.732;10.174;2023-07-22T09:00:03;97830.75;;;21.13;44.12
19884;BME280;10104;50.732;10.174;2023-07-22T09:02:27;97831.28;;;21.10;44.34
19884;BME280;10104;50.732;10.174;2023-07-22T09:04:49;97829.75;;;21.19;44.11
19884;BME280;10104;50.732;10.174;2023-07-22T09:07:11;97822.50;;;21.20;43.76
19884;BME280;10104;50.732;10.174;2023-07-22T09:09:34;97824.75;;;21.06;44.02
19884;BME280;10104;50.732;10.174;2023-07-22T09:11:56;97825.97;;;20.88;44.68
19884;BME280;10104;50.732;10.174;2023-07-22T09:14:19;97819.81;;;20.93;43.81
19884;BME280;10104;50.732;10.174;2023-07-22T09:16:57;97821.91;;;20.86;44.44
19884;BME280;10104;50.732;10.174;2023-07-22T09:19:19;97811.81;;;21.03;44.46
19884;BME280;10104;50.732;10.174;2023-07-22T09:21:41;97814.69;;;21.23;44.65
19884;BME280;10104;50.732;10.174;2023-07-22T09:24:19;97804.81;;;21.34;44.17
19884;BME280;10104;50.732;10.174;2023-07-22T09:26:42;97808.56;;;21.28;43.12
19884;BME280;10104;50.732;10.174;2023-07-22T09:29:04;97809.69;;;21.42;43.98
19884;BME280;10104;50.732;10.174;2023-07-22T09:31:26;97812.63;;;21.72;43.44
19884;BME280;10104;50.732;10.174;2023-07-22T09:33:50;97806.91;;;21.69;43.19
19884;BME280;10104;50.732;10.174;2023-07-22T09:36:12;97792.75;;;21.94;41.52
19884;BME280;10104;50.732;10.174;2023-07-22T09:38:33;97790.50;;;22.38;42.22
19884;BME280;10104;50.732;10.174;2023-07-22T09:40:55;97791.59;;;22.47;40.69
19884;BME280;10104;50.732;10.174;2023-07-22T09:43:17;97782.72;;;22.56;40.13
19884;BME280;10104;50.732;10.174;2023-07-22T09:45:38;97781.91;;;22.66;40.21
19884;BME280;10104;50.732;10.174;2023-07-22T09:48:00;97785.19;;;22.73;40.14
19884;BME280;10104;50.732;10.174;2023-07-22T09:50:24;97790.31;;;22.70;39.30
19884;BME280;10104;50.732;10.174;2023-07-22T09:52:49;97791.63;;;22.67;39.10
19884;BME280;10104;50.732;10.174;2023-07-22T09:55:11;97786.03;;;22.89;39.39
19884;BME280;10104;50.732;10.174;2023-07-22T09:57:35;97784.94;;;22.75;39.75
19884;BME280;10104;50.732;10.174;2023-07-22T09:59:57;97782.25;;;22.95;39.23
19884;BME280;10104;50.732;10.174;2023-07-22T10:02:20;97783.03;;;23.21;38.32
19884;BME280;10104;50.732;10.174;2023-07-22T10:04:43;97787.34;;;23.57;38.43
19884;BME280;10104;50.732;10.174;2023-07-22T10:07:07;97775.47;;;23.48;38.34
19884;BME280;10104;50.732;10.174;2023-07-22T10:09:30;97779.75;;;23.69;37.72
19884;BME280;10104;50.732;10.174;2023-07-22T10:11:52;97790.84;;;23.63;38.01
19884;BME280;10104;50.732;10.174;2023-07-22T10:14:14;97775.97;;;23.40;37.80
19884;BME280;10104;50.732;10.174;2023-07-22T10:16:36;97768.69;;;23.51;35.53
19884;BME280;10104;50.732;10.174;2023-07-22T10:18:59;97774.06;;;23.46;36.72
19884;BME280;10104;50.732;10.174;2023-07-22T10:21:21;97776.78;;;23.61;37.76
19884;BME280;10104;50.732;10.174;2023-07-22T10:23:43;97771.66;;;23.49;38.42
19884;BME280;10104;50.732;10.174;2023-07-22T10:26:07;97760.66;;;24.05;37.73
19884;BME280;10104;50.732;10.174;2023-07-22T10:28:32;97759.25;;;24.17;38.60
19884;BME280;10104;50.732;10.174;2023-07-22T10:30:54;97762.34;;;24.45;38.04
19884;BME280;10104;50.732;10.174;2023-07-22T10:33:16;97760.44;;;24.45;36.66
19884;BME280;10104;50.732;10.174;2023-07-22T10:35:42;97765.66;;;24.37;37.22
19884;BME280;10104;50.732;10.174;2023-07-22T10:40:31;97761.78;;;23.89;38.19
19884;BME280;10104;50.732;10.174;2023-07-22T10:45:28;97752.25;;;24.11;38.36
19884;BME280;10104;50.732;10.174;2023-07-22T10:48:07;97747.38;;;24.08;37.09
19884;BME280;10104;50.732;10.174;2023-07-22T10:50:42;97749.63;;;24.45;37.50
19884;BME280;10104;50.732;10.174;2023-07-22T10:53:04;97750.75;;;24.78;37.63
19884;BME280;10104;50.732;10.174;2023-07-22T10:55:26;97751.66;;;25.03;36.65
19884;BME280;10104;50.732;10.174;2023-07-22T10:57:49;97748.41;;;25.01;37.42
19884;BME280;10104;50.732;10.174;2023-07-22T11:00:18;97743.66;;;24.82;36.16
19884;BME280;10104;50.732;10.174;2023-07-22T11:02:40;97754.00;;;24.80;36.94
19884;BME280;10104;50.732;10.174;2023-07-22T11:05:03;97740.88;;;24.58;36.32
19884;BME280;10104;50.732;10.174;2023-07-22T11:07:41;97739.19;;;24.68;36.74
19884;BME280;10104;50.732;10.174;2023-07-22T11:10:15;97747.34;;;24.13;36.37
19884;BME280;10104;50.732;10.174;2023-07-22T11:12:42;97745.16;;;24.15;36.49
19884;BME280;10104;50.732;10.174;2023-07-22T11:15:05;97736.59;;;23.98;37.16
19884;BME280;10104;50.732;10.174;2023-07-22T11:17:30;97740.09;;;24.04;37.62
19884;BME280;10104;50.732;10.174;2023-07-22T11:19:52;97740.38;;;24.02;38.06
19884;BME280;10104;50.732;10.174;2023-07-22T11:22:14;97732.56;;;24.01;38.12
19884;BME280;10104;50.732;10.174;2023-07-22T11:24:36;97740.16;;;23.89;38.23
19884;BME280;10104;50.732;10.174;2023-07-22T11:26:58;97733.75;;;23.74;37.78
19884;BME280;10104;50.732;10.174;2023-07-22T11:29:20;97730.22;;;23.74;37.94
19884;BME280;10104;50.732;10.174;2023-07-22T11:31:43;97738.03;;;23.86;37.59
19884;BME280;10104;50.732;10.174;2023-07-22T11:34:06;97726.25;;;24.10;37.73
19884;BME280;10104;50.732;10.174;2023-07-22T11:36:28;97724.91;;;24.13;37.60
19884;BME280;10104;50.732;10.174;2023-07-22T11:38:50;97713.97;;;24.72;36.77
19884;BME280;10104;50.732;10.174;2023-07-22T11:41:12;97726.75;;;25.29;36.40
19884;BME280;10104;50.732;10.174;2023-07-22T11:43:33;97716.00;;;25.43;36.24
19884;BME280;10104;50.732;10.174;2023-07-22T11:45:55;97715.47;;;25.70;35.52
19884;BME280;10104;50.732;10.174;2023-07-22T11:48:16;97723.53;;;24.98;36.21
19884;BME280;10104;50.732;10.174;2023-07-22T11:50:38;97717.63;;;24.52;37.68
19884;BME280;10104;50.732;10.174;2023-07-22T11:53:00;97718.28;;;24.34;38.36
19884;BME280;10104;50.732;10.174;2023-07-22T11:55:24;97715.47;;;24.05;39.16
19884;BME280;10104;50.732;10.174;2023-07-22T11:57:57;97721.06;;;24.24;39.24
19884;BME280;10104;50.732;10.174;2023-07-22T12:00:19;97712.44;;;24.17;38.51
19884;BME280;10104;50.732;10.174;2023-07-22T12:02:41;97715.84;;;23.84;39.55
19884;BME280;10104;50.732;10.174;2023-07-22T12:05:04;97706.25;;;24.11;39.25
19884;BME280;10104;50.732;10.174;2023-07-22T12:07:29;97710.13;;;24.78;38.79
19884;BME280;10104;50.732;10.174;2023-07-22T12:09:54;97704.78;;;25.78;37.61
19884;BME280;10104;50.732;10.174;2023-07-22T12:12:16;97700.84;;;26.65;36.85
19884;BME280;10104;50.732;10.174;2023-07-22T12:14:37;97697.25;;;26.69;35.85
19884;BME280;10104;50.732;10.174;2023-07-22T12:16:59;97706.22;;;26.70;36.28
19884;BME280;10104;50.732;10.174;2023-07-22T12:19:21;97698.56;;;27.04;35.77
19884;BME280;10104;50.732;10.174;2023-07-22T12:21:42;97696.88;;;26.76;35.41
19884;BME280;10104;50.732;10.174;2023-07-22T12:24:04;97696.25;;;26.79;35.41
19884;BME280;10104;50.732;10.174;2023-07-22T12:26:26;97695.44;;;26.65;34.92
19884;BME280;10104;50.732;10.174;2023-07-22T12:28:47;97696.00;;;27.26;34.96